KROG

Rogers Executive - Carter Field Airport

Rogers, Arkansas, USA
METAR KROG 191058Z 00000KT 10SM CLR 22/21 A3000 RMK AO2 SLP143 T02220206
Observed Flight Rules
Sep-19 @ 10:58 UTC (23 minutes ago) Visual Flight Rules
Visibility Clouds
10 miles
  • Clear skies
Temperatures Readings
Current 22°C / 72°F
Dewpoint 21°C / 70°F
Humidity 94%
Altimeter 30" Hg
Pressure 1014.3 hPa
Elevation 415
METAR KROG 191058Z 00000KT 10SM CLR 22/21 A3000 RMK AO2 SLP143 T02220206
Observed Flight Rules
Sep-19 @ 10:58 UTC
(23 minutes ago)
VFR
Clouds
  • Clear skies
Temperature Dewpoint
22°C / 72°F 21°C / 70°F
Humidity Altimeter Pressure
94% 30" Hg 1014.3 hPa